Time;durP1;ratioP1;P1;durP2;ratioP2;P2;SDS_P1;SDS_P2;PMS_P1;PMS_P2;Temp;Humidity;BMP_temperature;BMP_pressure;BME280_temperature;BME280_humidity;BME280_pressure;Samples;Min_cycle;Max_cycle;Signal;HPM_P1;HPM_P2
2020/12/21 00:00:07;;;;;;;3.17;2.33;;;;;;;8.03;100.00;97172.38;4938325;28;20474;-69
2020/12/21 00:02:34;;;;;;;4.47;2.40;;;;;;;8.06;100.00;97167.03;4939634;28;20482;-69
2020/12/21 00:05:00;;;;;;;7.72;3.60;;;;;;;8.06;100.00;97161.84;4940564;28;20568;-70
2020/12/21 00:07:28;;;;;;;5.95;2.65;;;;;;;8.09;100.00;97175.53;4939985;28;20370;-68
2020/12/21 00:09:54;;;;;;;6.82;1.98;;;;;;;8.02;100.00;97170.69;4942502;28;20313;-68
2020/12/21 00:12:21;;;;;;;2.42;1.85;;;;;;;8.03;100.00;97174.97;4937409;28;20297;-69
2020/12/21 00:14:48;;;;;;;3.90;2.35;;;;;;;7.99;100.00;97178.59;4939387;28;20226;-68
2020/12/21 00:17:16;;;;;;;4.18;2.08;;;;;;;8.02;100.00;97181.06;4935371;28;20709;-68
2020/12/21 00:19:43;;;;;;;5.50;3.08;;;;;;;7.99;100.00;97181.16;4938751;28;20234;-68
2020/12/21 00:22:09;;;;;;;8.30;3.92;;;;;;;7.98;100.00;97179.50;4938542;28;20300;-68
2020/12/21 00:24:36;;;;;;;4.13;2.15;;;;;;;8.00;100.00;97167.31;4938830;28;20708;-68
2020/12/21 00:27:04;;;;;;;4.60;2.35;;;;;;;8.07;100.00;97176.50;4940635;28;20221;-68
2020/12/21 00:29:31;;;;;;;5.80;2.67;;;;;;;8.13;100.00;97176.25;4939412;28;20667;-69
2020/12/21 00:31:57;;;;;;;6.85;2.78;;;;;;;8.15;100.00;97175.28;4937691;28;20243;-68
2020/12/21 00:34:25;;;;;;;4.43;2.30;;;;;;;8.18;99.96;97186.34;4933482;28;20934;-69
2020/12/21 00:36:53;;;;;;;4.15;3.00;;;;;;;8.34;99.70;97186.56;4939018;28;20199;-68
2020/12/21 00:39:21;;;;;;;4.60;2.63;;;;;;;8.37;98.99;97181.25;4939371;28;20223;-69
2020/12/21 00:41:48;;;;;;;5.20;2.40;;;;;;;8.45;98.69;97177.41;4938955;28;20615;-69
2020/12/21 00:44:16;;;;;;;3.40;1.90;;;;;;;8.42;98.11;97180.13;4934894;28;20973;-69
2020/12/21 00:46:43;;;;;;;5.30;2.80;;;;;;;8.38;97.91;97172.56;4936910;28;20454;-68
2020/12/21 00:49:10;;;;;;;6.40;2.90;;;;;;;8.37;98.08;97183.00;4935803;28;20483;-69
2020/12/21 00:51:37;;;;;;;4.00;2.20;;;;;;;8.35;98.21;97190.84;4936681;28;20541;-68
2020/12/21 00:54:05;;;;;;;4.60;2.70;;;;;;;8.42;98.46;97184.50;4936153;28;20568;-68
2020/12/21 00:56:32;;;;;;;4.20;2.50;;;;;;;8.47;98.21;97183.38;4933297;28;20567;-69
2020/12/21 00:58:58;;;;;;;4.47;2.47;;;;;;;8.50;98.24;97188.41;4935803;28;20497;-68
2020/12/21 01:01:28;;;;;;;4.70;2.80;;;;;;;8.56;98.21;97190.72;4932611;28;20972;-68
2020/12/21 01:03:59;;;;;;;4.17;2.10;;;;;;;8.56;98.06;97187.31;4935474;28;20569;-68
2020/12/21 01:06:27;;;;;;;3.23;2.50;;;;;;;8.60;97.73;97188.84;4934558;28;20454;-69
2020/12/21 01:08:56;;;;;;;2.70;2.07;;;;;;;8.58;97.40;97196.72;4938515;28;20507;-69
2020/12/21 01:11:22;;;;;;;3.73;1.67;;;;;;;8.56;97.19;97188.13;4938781;28;20541;-69
2020/12/21 01:13:50;;;;;;;3.50;2.47;;;;;;;8.55;96.64;97185.63;4937800;28;20548;-69
2020/12/21 01:16:19;;;;;;;3.08;2.17;;;;;;;8.39;96.88;97184.59;4939756;28;20449;-68
2020/12/21 01:18:47;;;;;;;3.80;2.33;;;;;;;8.27;97.57;97185.97;4938135;28;20250;-69
2020/12/21 01:21:22;;;;;;;5.87;2.67;;;;;;;8.21;97.77;97180.22;4938037;28;20861;-70
2020/12/21 01:23:49;;;;;;;2.90;2.30;;;;;;;8.18;97.89;97175.97;4935745;28;20509;-68
2020/12/21 01:26:17;;;;;;;3.37;2.00;;;;;;;8.16;97.96;97183.91;4937883;28;20458;-68
2020/12/21 01:28:44;;;;;;;3.03;2.00;;;;;;;8.17;97.69;97177.81;4938257;28;20572;-68
2020/12/21 01:31:11;;;;;;;4.78;2.42;;;;;;;8.13;97.64;97173.66;4941493;28;20282;-68
2020/12/21 01:33:38;;;;;;;4.20;1.85;;;;;;;8.08;97.79;97178.22;4938375;28;20330;-68
2020/12/21 01:36:05;;;;;;;3.38;1.70;;;;;;;8.02;97.17;97179.28;4939800;28;20207;-68
2020/12/21 01:38:32;;;;;;;4.13;1.60;;;;;;;7.93;96.90;97173.66;4939402;28;20752;-68
2020/12/21 01:40:59;;;;;;;3.05;2.00;;;;;;;7.87;97.23;97176.53;4939613;28;20704;-69
2020/12/21 01:43:26;;;;;;;3.15;1.67;;;;;;;7.85;97.44;97179.19;4936162;28;20882;-68
2020/12/21 01:45:53;;;;;;;1.73;1.45;;;;;;;7.83;97.88;97185.31;4941927;28;20524;-68
2020/12/21 01:48:21;;;;;;;3.30;2.00;;;;;;;7.78;97.12;97195.03;4941858;28;20601;-68
2020/12/21 01:50:48;;;;;;;3.87;1.83;;;;;;;7.70;96.99;97194.50;4941753;28;20565;-69
2020/12/21 01:53:15;;;;;;;8.00;3.15;;;;;;;7.59;96.92;97188.94;4937727;28;20509;-68
2020/12/21 01:55:43;;;;;;;3.00;1.92;;;;;;;7.42;97.53;97178.44;4937720;28;20284;-68
2020/12/21 01:58:10;;;;;;;2.10;1.90;;;;;;;7.42;98.91;97181.00;4940378;28;20674;-68
2020/12/21 02:00:37;;;;;;;3.50;2.10;;;;;;;7.51;99.44;97185.81;4941094;28;20617;-68
2020/12/21 02:03:08;;;;;;;3.50;2.15;;;;;;;7.60;100.00;97191.47;4938398;28;20701;-68
2020/12/21 02:05:36;;;;;;;2.20;1.55;;;;;;;7.69;100.00;97185.91;4939945;28;20238;-69
2020/12/21 02:08:05;;;;;;;4.53;2.47;;;;;;;7.73;99.44;97191.81;4938655;28;20513;-67
2020/12/21 02:10:33;;;;;;;9.90;2.38;;;;;;;7.70;99.20;97184.13;4939231;28;20759;-68
2020/12/21 02:12:59;;;;;;;4.83;2.27;;;;;;;7.73;98.94;97181.44;4941422;28;20580;-71
2020/12/21 02:15:26;;;;;;;6.00;1.80;;;;;;;7.74;98.68;97177.94;4944359;28;20566;-69
2020/12/21 02:17:54;;;;;;;5.88;1.95;;;;;;;7.73;97.86;97186.63;4939389;28;20238;-69
2020/12/21 02:20:28;;;;;;;4.88;1.83;;;;;;;7.66;98.08;97182.59;4939906;28;20600;-69
2020/12/21 02:22:55;;;;;;;6.00;2.40;;;;;;;7.60;98.37;97177.66;4939489;28;20196;-69
2020/12/21 02:25:22;;;;;;;4.75;2.28;;;;;;;7.69;98.35;97177.28;4944280;28;20465;-69
2020/12/21 02:27:49;;;;;;;2.53;1.67;;;;;;;7.56;97.64;97178.69;4940180;28;20523;-69
2020/12/21 02:30:16;;;;;;;5.07;1.95;;;;;;;7.57;97.01;97170.03;4937233;28;20223;-68
2020/12/21 02:32:43;;;;;;;3.90;2.00;;;;;;;7.52;96.96;97159.84;4938357;28;20673;-68
2020/12/21 02:35:10;;;;;;;2.38;1.88;;;;;;;7.56;97.63;97157.97;4939168;28;20594;-69
2020/12/21 02:37:38;;;;;;;4.30;1.67;;;;;;;7.58;97.73;97151.00;4939062;28;20677;-69
2020/12/21 02:40:05;;;;;;;6.70;2.23;;;;;;;7.62;97.89;97155.97;4936086;28;20674;-69
2020/12/21 02:42:32;;;;;;;4.27;2.30;;;;;;;7.60;97.64;97157.78;4935523;28;20458;-69
2020/12/21 02:44:59;;;;;;;2.85;1.58;;;;;;;7.58;97.88;97153.56;4932713;28;20863;-70
2020/12/21 02:47:26;;;;;;;4.65;1.60;;;;;;;7.62;97.70;97162.88;4933326;28;20286;-69
2020/12/21 02:49:53;;;;;;;5.13;1.58;;;;;;;7.62;97.75;97157.72;4918124;28;20251;-71
2020/12/21 02:52:20;;;;;;;2.30;1.60;;;;;;;7.64;97.86;97161.09;4934339;28;20235;-68
2020/12/21 02:54:48;;;;;;;4.40;1.67;;;;;;;7.58;98.06;97156.16;4928500;28;20245;-67
2020/12/21 02:57:16;;;;;;;3.70;1.70;;;;;;;7.35;98.53;97153.69;4920460;28;20260;-68
2020/12/21 02:59:43;;;;;;;6.47;1.73;;;;;;;7.30;99.16;97145.25;4918167;28;20528;-68
2020/12/21 03:02:10;;;;;;;4.25;1.95;;;;;;;7.40;98.74;97154.31;4931957;28;20298;-68
2020/12/21 03:04:37;;;;;;;8.65;1.60;;;;;;;7.36;98.81;97152.78;4934471;28;20473;-68
2020/12/21 03:07:04;;;;;;;3.55;1.35;;;;;;;7.32;98.07;97148.59;4918117;28;20200;-68
2020/12/21 03:09:31;;;;;;;2.65;1.65;;;;;;;7.29;98.07;97156.50;4916788;28;20667;-69
2020/12/21 03:11:58;;;;;;;2.50;1.48;;;;;;;7.22;97.46;97157.66;4916740;28;20285;-68
2020/12/21 03:14:25;;;;;;;1.75;1.27;;;;;;;7.10;97.38;97160.72;4916407;28;20600;-68
2020/12/21 03:16:52;;;;;;;7.25;2.38;;;;;;;7.00;96.97;97167.16;4918870;28;20200;-71
2020/12/21 03:19:19;;;;;;;8.52;1.98;;;;;;;6.91;97.14;97163.19;4917571;28;20228;-68
2020/12/21 03:21:46;;;;;;;3.72;1.55;;;;;;;6.98;97.09;97163.78;4931408;28;20751;-68
2020/12/21 03:24:13;;;;;;;2.78;2.00;;;;;;;6.95;98.07;97163.91;4916550;28;20303;-68
2020/12/21 03:26:41;;;;;;;5.53;1.55;;;;;;;7.06;98.28;97161.75;4917772;28;20230;-68
2020/12/21 03:29:09;;;;;;;3.17;1.70;;;;;;;7.04;98.76;97166.13;4917552;28;20600;-68
2020/12/21 03:31:36;;;;;;;2.15;1.25;;;;;;;7.07;99.08;97153.91;4919755;28;20750;-68
2020/12/21 03:34:02;;;;;;;4.30;1.48;;;;;;;7.09;98.45;97156.44;4922162;28;20591;-67
2020/12/21 03:36:30;;;;;;;4.10;1.20;;;;;;;7.10;98.66;97158.13;4914569;28;20647;-69
2020/12/21 03:38:57;;;;;;;3.22;1.25;;;;;;;7.16;98.58;97147.53;4916585;28;20222;-68
2020/12/21 03:41:24;;;;;;;2.80;1.50;;;;;;;7.14;98.39;97152.78;4932559;28;20262;-67
2020/12/21 03:43:50;;;;;;;7.05;1.20;;;;;;;7.07;97.73;97153.09;4917016;28;20572;-68
2020/12/21 03:46:18;;;;;;;4.53;1.30;;;;;;;7.04;97.07;97150.59;4915666;28;20664;-70
2020/12/21 03:48:45;;;;;;;8.30;1.20;;;;;;;6.90;96.30;97150.28;4919177;28;20226;-68
2020/12/21 03:51:12;;;;;;;2.42;1.60;;;;;;;6.78;95.46;97155.97;4931811;28;20282;-69
2020/12/21 03:53:39;;;;;;;1.30;1.10;;;;;;;6.66;95.21;97143.47;4932926;28;20325;-69
2020/12/21 03:56:06;;;;;;;5.57;1.77;;;;;;;6.64;96.15;97138.34;4915160;28;20796;-67
2020/12/21 03:58:33;;;;;;;1.73;1.33;;;;;;;6.69;96.02;97140.78;4912069;28;20283;-68
2020/12/21 04:01:01;;;;;;;2.10;1.45;;;;;;;6.68;95.41;97144.25;4921891;28;20231;-68
2020/12/21 04:03:30;;;;;;;4.22;1.52;;;;;;;6.67;95.71;97145.16;4933107;28;20320;-69
2020/12/21 04:05:57;;;;;;;2.65;1.42;;;;;;;6.56;95.55;97150.72;4920850;28;20206;-68
2020/12/21 04:08:24;;;;;;;2.50;1.40;;;;;;;6.57;95.98;97136.91;4915901;28;20389;-67
2020/12/21 04:10:51;;;;;;;2.03;1.42;;;;;;;6.70;96.66;97137.31;4923888;28;20257;-69
2020/12/21 04:13:18;;;;;;;3.35;1.58;;;;;;;6.75;96.58;97136.22;4916035;28;20585;-68
2020/12/21 04:16:02;;;;;;;3.63;1.30;;;;;;;6.74;96.91;97134.53;4929451;28;20281;-69
2020/12/21 04:18:31;;;;;;;3.47;1.40;;;;;;;6.77;97.18;97134.41;4926115;28;20554;-68
2020/12/21 04:20:57;;;;;;;4.43;1.55;;;;;;;6.83;97.55;97139.34;4923735;28;20654;-70
2020/12/21 04:23:24;;;;;;;4.18;1.35;;;;;;;6.88;97.35;97140.03;4922198;28;20718;-68
2020/12/21 04:25:54;;;;;;;1.40;1.10;;;;;;;6.81;97.09;97130.81;4915639;28;20210;-68
2020/12/21 04:28:21;;;;;;;6.88;1.15;;;;;;;6.89;97.19;97143.44;4922248;28;20639;-68
2020/12/21 04:30:48;;;;;;;1.88;1.10;;;;;;;6.96;96.79;97131.94;4917236;28;20753;-68
2020/12/21 04:33:15;;;;;;;3.63;1.77;;;;;;;7.03;96.88;97131.66;4922862;28;20674;-68
2020/12/21 04:35:57;;;;;;;3.85;1.50;;;;;;;7.07;97.23;97124.63;4916035;28;20235;-69
2020/12/21 04:38:24;;;;;;;2.95;1.20;;;;;;;7.11;97.66;97119.25;4920161;28;20282;-69
2020/12/21 04:40:51;;;;;;;2.10;1.08;;;;;;;7.12;97.79;97109.72;4932223;28;20793;-69
2020/12/21 04:43:17;;;;;;;3.40;1.40;;;;;;;7.12;97.91;97102.81;4931229;28;20587;-69
2020/12/21 04:45:45;;;;;;;9.77;1.70;;;;;;;7.17;98.09;97100.03;4932847;28;20242;-68
2020/12/21 04:48:15;;;;;;;1.88;1.05;;;;;;;7.18;98.07;97099.13;4929521;28;20616;-68
2020/12/21 04:50:43;;;;;;;4.25;1.10;;;;;;;7.22;97.89;97108.47;4916199;28;20637;-68
2020/12/21 04:53:12;;;;;;;8.23;1.80;;;;;;;7.22;97.60;97105.88;4914392;28;20652;-68
2020/12/21 04:55:41;;;;;;;5.97;1.25;;;;;;;7.29;97.57;97112.50;4916019;28;20262;-68
2020/12/21 04:58:08;;;;;;;3.10;2.22;;;;;;;7.28;96.78;97122.00;4914134;28;20196;-68
2020/12/21 05:00:34;;;;;;;4.28;2.03;;;;;;;7.07;96.97;97124.63;4918007;28;20910;-67
2020/12/21 05:03:04;;;;;;;6.05;1.60;;;;;;;7.08;97.77;97116.78;4914846;28;20722;-68
2020/12/21 05:05:32;;;;;;;5.50;1.50;;;;;;;7.21;97.12;97104.22;4919444;28;20915;-67
2020/12/21 05:08:08;;;;;;;6.00;2.22;;;;;;;7.27;96.94;97109.09;4922756;28;20204;-68
2020/12/21 05:10:36;;;;;;;5.55;1.60;;;;;;;7.36;96.85;97101.00;4915574;28;20674;-67
2020/12/21 05:13:03;;;;;;;3.95;1.35;;;;;;;7.43;96.86;97098.06;4920255;28;20195;-70
2020/12/21 05:15:31;;;;;;;4.00;1.33;;;;;;;7.46;96.78;97099.69;4918790;28;20227;-68
2020/12/21 05:18:09;;;;;;;1.60;1.13;;;;;;;7.45;96.89;97093.66;4918170;28;20282;-68
2020/12/21 05:20:40;;;;;;;2.63;1.38;;;;;;;7.47;96.95;97091.00;4925455;28;20215;-67
2020/12/21 05:23:15;;;;;;;8.40;1.17;;;;;;;7.49;96.84;97107.31;4923637;28;20682;-68
2020/12/21 05:25:43;;;;;;;6.28;2.20;;;;;;;7.23;97.24;97110.16;4932905;28;20532;-68
2020/12/21 05:28:14;;;;;;;6.35;1.50;;;;;;;7.04;97.92;97106.59;4927172;28;20299;-69
2020/12/21 05:30:52;;;;;;;2.95;1.55;;;;;;;7.12;98.15;97102.81;4918619;28;20235;-70
2020/12/21 05:33:19;;;;;;;12.77;3.60;;;;;;;6.90;97.27;97114.94;4933847;28;20293;-68
2020/12/21 05:35:47;;;;;;;12.55;3.85;;;;;;;6.69;97.03;97123.53;4934936;28;20603;-69
2020/12/21 05:38:25;;;;;;;7.13;4.00;;;;;;;6.72;97.28;97130.31;4917263;28;20268;-69
2020/12/21 05:40:53;;;;;;;8.43;3.85;;;;;;;6.82;97.20;97126.47;4921669;28;20635;-70
2020/12/21 05:43:28;;;;;;;7.35;3.47;;;;;;;6.90;97.28;97129.59;4923119;28;20766;-69
2020/12/21 05:46:05;;;;;;;5.88;3.05;;;;;;;7.00;97.19;97128.34;4924359;28;20239;-68
2020/12/21 05:48:34;;;;;;;5.25;2.90;;;;;;;7.03;97.52;97133.41;4918978;28;20777;-70
2020/12/21 05:51:02;;;;;;;4.55;2.35;;;;;;;7.13;96.92;97134.72;4924442;28;20250;-68
2020/12/21 05:53:37;;;;;;;5.60;2.05;;;;;;;7.21;97.51;97125.75;4923095;28;20665;-68
2020/12/21 05:56:06;;;;;;;1.65;1.20;;;;;;;7.16;97.84;97121.66;4920263;28;20202;-68
2020/12/21 05:58:35;;;;;;;6.55;2.08;;;;;;;7.18;97.71;97125.88;4920857;28;20226;-69
2020/12/21 06:01:04;;;;;;;6.97;1.75;;;;;;;7.15;98.42;97120.81;4922279;28;20742;-67
2020/12/21 06:03:52;;;;;;;3.90;1.85;;;;;;;7.13;98.40;97129.56;4920900;29;20326;-68
2020/12/21 06:06:20;;;;;;;2.45;1.20;;;;;;;7.06;98.75;97125.53;4917416;28;20291;-68
2020/12/21 06:08:49;;;;;;;3.78;1.25;;;;;;;7.03;99.07;97120.44;4920297;29;20298;-68
2020/12/21 06:11:19;;;;;;;5.32;1.38;;;;;;;7.09;99.35;97126.25;4920046;29;20299;-69
2020/12/21 06:13:55;;;;;;;5.70;1.88;;;;;;;7.09;98.94;97125.41;4923216;28;20489;-69
2020/12/21 06:16:23;;;;;;;6.22;1.70;;;;;;;7.13;99.28;97126.97;4919179;28;20290;-68
2020/12/21 06:19:00;;;;;;;3.65;1.48;;;;;;;7.23;98.95;97123.09;4921436;28;20667;-69
2020/12/21 06:21:27;;;;;;;3.53;1.50;;;;;;;7.35;98.22;97118.25;4915917;28;20748;-68
2020/12/21 06:23:54;;;;;;;3.45;1.60;;;;;;;7.41;98.02;97109.38;4922264;28;20958;-68
2020/12/21 06:26:33;;;;;;;4.90;2.03;;;;;;;7.44;97.92;97102.34;4920469;29;20642;-69
2020/12/21 06:29:01;;;;;;;5.30;1.60;;;;;;;7.50;97.74;97111.63;4922060;28;20286;-70
2020/12/21 06:31:37;;;;;;;3.47;1.50;;;;;;;7.44;97.04;97117.03;4917482;28;20330;-68
2020/12/21 06:34:05;;;;;;;12.50;1.55;;;;;;;7.42;97.06;97122.28;4922566;28;20222;-68
2020/12/21 06:36:33;;;;;;;2.05;1.58;;;;;;;7.24;97.97;97110.09;4924273;28;20812;-69
2020/12/21 06:39:00;;;;;;;5.80;2.05;;;;;;;7.18;97.92;97104.31;4919626;29;20694;-70
2020/12/21 06:41:27;;;;;;;3.28;1.40;;;;;;;7.09;98.34;97097.78;4928664;28;20333;-69
2020/12/21 06:44:05;;;;;;;3.67;1.77;;;;;;;6.99;99.11;97093.03;4938104;28;20285;-68
2020/12/21 06:46:33;;;;;;;3.78;1.52;;;;;;;6.97;99.60;97085.31;4939590;28;20494;-68
2020/12/21 06:49:05;;;;;;;4.55;1.65;;;;;;;6.97;99.47;97085.31;4938229;28;20223;-68
2020/12/21 06:51:32;;;;;;;2.65;1.65;;;;;;;6.96;99.59;97085.38;4938640;28;20215;-67
2020/12/21 06:54:00;;;;;;;7.53;2.45;;;;;;;6.96;99.86;97087.97;4938106;28;20310;-67
2020/12/21 06:56:27;;;;;;;4.57;1.45;;;;;;;6.87;100.00;97091.78;4935580;28;20894;-67
2020/12/21 06:58:54;;;;;;;8.32;2.67;;;;;;;6.87;100.00;97076.25;4937242;28;20226;-68
2020/12/21 07:01:23;;;;;;;8.02;2.53;;;;;;;6.91;100.00;97058.88;4938687;28;20195;-68
2020/12/21 07:03:50;;;;;;;4.65;1.80;;;;;;;7.02;99.76;97067.03;4938816;28;20698;-68
2020/12/21 07:06:18;;;;;;;5.80;2.38;;;;;;;7.02;98.74;97067.03;4938327;28;20679;-68
2020/12/21 07:08:45;;;;;;;4.80;2.15;;;;;;;6.91;98.75;97058.88;4938365;28;20313;-68
2020/12/21 07:11:16;;;;;;;3.95;2.00;;;;;;;6.76;98.95;97065.47;4937850;28;20350;-67
2020/12/21 07:13:44;;;;;;;5.18;2.22;;;;;;;6.66;98.71;97052.97;4938046;28;20760;-67
2020/12/21 07:16:12;;;;;;;6.03;2.08;;;;;;;6.57;99.45;97074.03;4939184;28;20224;-67
2020/12/21 07:18:39;;;;;;;6.05;2.60;;;;;;;6.47;99.59;97058.00;4939788;28;20537;-67
2020/12/21 07:21:10;;;;;;;7.82;3.53;;;;;;;6.48;99.83;97069.22;4940880;28;20583;-67
2020/12/21 07:23:38;;;;;;;5.35;2.63;;;;;;;6.49;99.66;97065.72;4938327;28;20226;-68
2020/12/21 07:26:06;;;;;;;4.45;2.75;;;;;;;6.53;98.95;97072.44;4940165;28;20266;-67
2020/12/21 07:28:33;;;;;;;8.25;2.80;;;;;;;6.49;98.98;97063.13;4937766;28;20222;-67
2020/12/21 07:31:11;;;;;;;5.22;3.72;;;;;;;6.49;99.55;97069.13;4937763;28;20294;-68
2020/12/21 07:33:51;;;;;;;6.68;2.67;;;;;;;6.55;99.13;97075.81;4934800;28;20665;-67
2020/12/21 07:36:19;;;;;;;4.55;2.53;;;;;;;6.51;99.26;97080.28;4938598;28;20486;-68
2020/12/21 07:38:46;;;;;;;7.00;3.70;;;;;;;6.52;98.85;97081.97;4937618;28;20223;-67
2020/12/21 07:41:15;;;;;;;8.82;3.28;;;;;;;6.52;99.12;97081.09;4938235;28;20254;-67
2020/12/21 07:43:44;;;;;;;7.93;2.70;;;;;;;6.50;98.88;97085.50;4939862;28;20705;-67
2020/12/21 07:46:20;;;;;;;5.72;2.75;;;;;;;6.53;98.98;97093.13;4938259;28;20206;-67
2020/12/21 07:48:47;;;;;;;5.15;2.65;;;;;;;6.53;98.90;97087.94;4938388;28;20601;-68
2020/12/21 07:51:19;;;;;;;7.25;2.65;;;;;;;6.53;98.63;97087.94;4937763;28;20215;-67
2020/12/21 07:53:46;;;;;;;8.27;3.70;;;;;;;6.51;98.09;97080.28;4938491;28;20536;-68
2020/12/21 07:56:15;;;;;;;7.03;2.75;;;;;;;6.59;97.88;97085.13;4935550;28;20673;-68
2020/12/21 07:58:42;;;;;;;3.83;2.35;;;;;;;6.53;98.35;97083.63;4934796;28;20314;-68
2020/12/21 08:01:09;;;;;;;15.07;2.75;;;;;;;6.57;97.95;97086.94;4937674;28;20223;-68
2020/12/21 08:03:39;;;;;;;4.93;2.08;;;;;;;6.56;98.14;97078.34;4937312;28;20281;-68
2020/12/21 08:06:11;;;;;;;4.75;2.10;;;;;;;6.67;97.95;97083.09;4937792;28;20583;-67
2020/12/21 08:08:40;;;;;;;5.80;2.22;;;;;;;6.79;97.50;97090.38;4936841;28;20313;-68
2020/12/21 08:11:12;;;;;;;9.55;2.55;;;;;;;6.80;96.98;97094.66;4936349;28;20309;-67
2020/12/21 08:13:45;;;;;;;7.35;3.00;;;;;;;6.88;96.58;97095.19;4936391;28;20601;-68
2020/12/21 08:16:12;;;;;;;4.43;2.72;;;;;;;6.96;95.67;97094.00;4937513;28;20242;-68
2020/12/21 08:18:39;;;;;;;5.32;2.38;;;;;;;7.13;95.21;97093.31;4937365;28;20226;-68
2020/12/21 08:21:06;;;;;;;8.30;2.45;;;;;;;7.21;94.32;97094.69;4937355;28;20214;-68
2020/12/21 08:23:33;;;;;;;4.97;2.63;;;;;;;7.18;93.81;97101.72;4937157;28;20242;-68
2020/12/21 08:26:01;;;;;;;7.30;2.78;;;;;;;7.03;94.15;97100.59;4937283;28;20638;-72
2020/12/21 08:28:31;;;;;;;6.97;2.85;;;;;;;6.95;94.19;97106.97;4935915;28;20218;-68
2020/12/21 08:31:15;;;;;;;4.40;1.92;;;;;;;7.03;94.25;97110.09;4937520;28;20273;-68
2020/12/21 08:33:44;;;;;;;6.85;2.65;;;;;;;6.98;94.03;97101.66;4937225;28;20222;-68
2020/12/21 08:36:23;;;;;;;4.10;2.20;;;;;;;7.10;93.88;97106.38;4937611;28;20238;-70
2020/12/21 08:38:50;;;;;;;8.50;2.35;;;;;;;7.09;93.84;97102.97;4938338;28;20723;-68
2020/12/21 08:41:19;;;;;;;3.97;2.60;;;;;;;7.15;93.67;97105.28;4934679;28;20706;-68
2020/12/21 08:43:46;;;;;;;12.27;2.70;;;;;;;7.27;93.25;97109.09;4919494;28;20294;-67
2020/12/21 08:46:14;;;;;;;11.23;4.60;;;;;;;7.18;92.64;97104.31;4918104;28;20659;-68
2020/12/21 08:48:44;;;;;;;5.07;2.22;;;;;;;7.35;92.99;97107.06;4920117;28;20702;-67
2020/12/21 08:51:12;;;;;;;4.35;2.08;;;;;;;7.47;92.78;97106.56;4918361;28;20239;-69
2020/12/21 08:53:57;;;;;;;7.70;2.13;;;;;;;7.58;92.21;97114.72;4919564;28;20250;-69
2020/12/21 08:56:25;;;;;;;5.22;2.45;;;;;;;7.71;92.04;97116.72;4922386;28;20200;-68
2020/12/21 08:59:08;;;;;;;7.47;1.70;;;;;;;7.83;90.90;97118.81;4926139;28;20234;-68
2020/12/21 09:01:40;;;;;;;6.65;2.58;;;;;;;7.94;90.61;97105.38;4935842;28;20245;-68
2020/12/21 09:04:07;;;;;;;4.80;2.40;;;;;;;7.97;89.64;97108.69;4932989;28;20781;-68
2020/12/21 09:06:33;;;;;;;5.53;2.15;;;;;;;7.88;89.97;97113.41;4936548;28;20227;-68
2020/12/21 09:09:00;;;;;;;7.05;2.20;;;;;;;7.85;90.64;97109.22;4911008;28;20846;-68
2020/12/21 09:11:30;;;;;;;3.58;2.25;;;;;;;7.90;89.85;97111.59;4934181;28;20215;-68
2020/12/21 09:13:57;;;;;;;11.73;2.28;;;;;;;7.84;89.69;97117.91;4934277;28;20760;-68
2020/12/21 09:16:25;;;;;;;8.20;1.92;;;;;;;7.70;89.71;97114.19;4923704;28;20211;-68
2020/12/21 09:18:52;;;;;;;6.38;2.50;;;;;;;7.79;89.28;97108.63;4925849;28;20670;-69
2020/12/21 09:21:21;;;;;;;3.25;1.65;;;;;;;7.75;88.50;97109.66;4926717;28;20719;-68
2020/12/21 09:23:49;;;;;;;3.38;1.80;;;;;;;7.71;88.64;97101.19;4915643;28;20227;-67
2020/12/21 09:26:16;;;;;;;3.58;1.88;;;;;;;7.76;89.53;97104.44;4934601;28;20603;-68
2020/12/21 09:28:44;;;;;;;2.15;1.52;;;;;;;7.86;88.98;97099.69;4925911;28;20625;-70
2020/12/21 09:31:12;;;;;;;3.47;2.05;;;;;;;7.96;89.05;97106.16;4921154;28;20307;-69
2020/12/21 09:33:44;;;;;;;5.32;2.30;;;;;;;8.04;88.56;97102.34;4935452;28;20218;-68
2020/12/21 09:36:12;;;;;;;8.00;3.10;;;;;;;8.05;87.93;97105.75;4934935;28;20215;-68
2020/12/21 09:38:43;;;;;;;6.05;2.33;;;;;;;8.02;87.90;97100.72;4910810;28;20648;-68
2020/12/21 09:41:16;;;;;;;3.83;2.20;;;;;;;7.99;87.65;97100.81;4928380;28;20227;-68
2020/12/21 09:43:45;;;;;;;5.97;1.97;;;;;;;7.93;87.60;97106.25;4917750;28;20479;-68
2020/12/21 09:46:17;;;;;;;4.53;1.77;;;;;;;7.96;87.81;97100.97;4925502;28;20467;-68
2020/12/21 09:48:50;;;;;;;5.50;1.33;;;;;;;8.01;87.82;97096.44;4918418;28;20965;-69
2020/12/21 09:51:18;;;;;;;6.80;1.20;;;;;;;8.00;87.99;97094.72;4928091;28;20533;-68
2020/12/21 09:53:46;;;;;;;6.22;1.80;;;;;;;7.90;86.56;97085.69;4933162;28;20243;-68
2020/12/21 09:56:16;;;;;;;5.37;1.50;;;;;;;7.91;86.49;97095.13;4920246;28;20205;-68
2020/12/21 09:58:45;;;;;;;3.00;1.50;;;;;;;7.92;86.96;97089.03;4918695;28;20554;-68
2020/12/21 10:01:12;;;;;;;6.00;1.77;;;;;;;7.95;87.17;97091.50;4921079;28;20193;-68
2020/12/21 10:03:40;;;;;;;7.73;1.40;;;;;;;7.97;86.64;97087.94;4916995;28;20562;-68
2020/12/21 10:06:07;;;;;;;5.87;1.73;;;;;;;8.02;86.71;97088.56;4931001;28;20520;-68
2020/12/21 10:08:34;;;;;;;3.55;1.77;;;;;;;7.98;86.32;97081.84;4934810;28;20544;-68
2020/12/21 10:11:02;;;;;;;12.70;1.75;;;;;;;7.94;86.58;97076.88;4932691;28;20536;-68
2020/12/21 10:13:30;;;;;;;5.38;1.80;;;;;;;7.95;87.61;97070.78;4928851;28;20518;-68
2020/12/21 10:15:58;;;;;;;5.35;1.67;;;;;;;8.01;86.67;97067.94;4934285;28;20897;-66
2020/12/21 10:18:25;;;;;;;3.70;1.35;;;;;;;8.02;86.98;97064.41;4926814;28;20235;-68
2020/12/21 10:20:52;;;;;;;8.10;2.00;;;;;;;8.02;86.59;97074.78;4925233;28;20309;-68
2020/12/21 10:23:18;;;;;;;3.85;1.55;;;;;;;7.99;87.31;97070.56;4922960;28;20200;-71
2020/12/21 10:25:46;;;;;;;3.93;1.40;;;;;;;8.04;86.99;97055.66;4917105;28;20729;-68
2020/12/21 10:28:14;;;;;;;4.40;1.90;;;;;;;8.07;87.73;97059.84;4918754;28;20452;-68
2020/12/21 10:30:42;;;;;;;2.60;1.45;;;;;;;8.16;87.48;97059.47;4933933;28;20262;-68
2020/12/21 10:33:09;;;;;;;4.40;1.55;;;;;;;8.13;87.75;97067.34;4924928;28;20231;-70
2020/12/21 10:35:38;;;;;;;5.87;2.10;;;;;;;8.11;87.74;97064.84;4917880;28;20262;-68
2020/12/21 10:38:05;;;;;;;6.25;2.83;;;;;;;8.07;88.83;97052.06;4914997;28;20518;-68
2020/12/21 10:40:35;;;;;;;4.60;2.30;;;;;;;8.10;88.45;97057.97;4919724;28;20603;-67
2020/12/21 10:43:02;;;;;;;3.25;1.90;;;;;;;8.10;88.91;97045.00;4922891;28;20937;-68
2020/12/21 10:45:29;;;;;;;2.30;1.65;;;;;;;8.06;88.87;97042.63;4920820;28;20772;-68
2020/12/21 10:47:56;;;;;;;2.10;1.40;;;;;;;7.99;88.63;97036.03;4921946;28;20639;-68
2020/12/21 10:50:24;;;;;;;6.38;1.73;;;;;;;7.97;88.84;97024.91;4920759;28;20347;-68
2020/12/21 10:52:51;;;;;;;7.47;2.15;;;;;;;7.94;89.55;97019.88;4918439;29;20282;-67
2020/12/21 10:55:17;;;;;;;2.60;1.40;;;;;;;8.07;89.07;97020.97;4921135;28;20223;-68
2020/12/21 10:57:44;;;;;;;7.90;1.38;;;;;;;7.96;89.26;97018.03;4915625;28;20247;-70
2020/12/21 11:00:11;;;;;;;4.85;1.80;;;;;;;7.90;89.31;97019.16;4920997;28;20314;-71
2020/12/21 11:02:38;;;;;;;6.30;1.63;;;;;;;7.95;89.37;97016.34;4918489;28;20530;-71
2020/12/21 11:05:05;;;;;;;9.75;1.70;;;;;;;7.94;89.37;97014.69;4919791;28;20942;-70
2020/12/21 11:07:33;;;;;;;4.03;1.90;;;;;;;7.96;89.34;97025.81;4921162;28;20239;-70
2020/12/21 11:10:09;;;;;;;4.80;1.97;;;;;;;7.98;90.15;97031.75;4922606;28;20597;-70
2020/12/21 11:12:37;;;;;;;7.28;2.25;;;;;;;7.98;90.03;97018.81;4919291;28;20458;-70
2020/12/21 11:15:05;;;;;;;7.10;2.22;;;;;;;8.05;90.03;97022.78;4917745;28;20228;-70
2020/12/21 11:17:32;;;;;;;12.53;2.43;;;;;;;8.14;89.85;97024.06;4924066;29;20207;-71
2020/12/21 11:19:59;;;;;;;3.42;1.65;;;;;;;8.18;89.05;97023.94;4923450;29;20475;-70
2020/12/21 11:22:26;;;;;;;7.13;3.47;;;;;;;8.20;88.87;97033.34;4917029;28;20191;-70
2020/12/21 11:24:55;;;;;;;4.63;1.73;;;;;;;8.22;88.47;97041.91;4923247;28;20471;-70
2020/12/21 11:27:22;;;;;;;4.20;1.60;;;;;;;8.24;89.36;97032.28;4918188;29;20487;-70
2020/12/21 11:29:49;;;;;;;8.40;2.00;;;;;;;8.31;88.61;97025.09;4917999;29;21009;-70
2020/12/21 11:32:21;;;;;;;4.70;1.83;;;;;;;8.30;88.48;97026.00;4920524;28;20490;-70
2020/12/21 11:34:48;;;;;;;6.23;2.30;;;;;;;8.39;88.42;97024.66;4922675;28;20615;-70
2020/12/21 11:37:15;;;;;;;7.30;2.80;;;;;;;8.51;88.17;97029.28;4928154;28;20530;-70
2020/12/21 11:39:42;;;;;;;7.60;2.90;;;;;;;8.55;87.56;97027.38;4919905;28;20613;-70
2020/12/21 11:42:10;;;;;;;5.70;2.70;;;;;;;8.55;88.31;97010.03;4941410;28;20657;-70
2020/12/21 11:44:37;;;;;;;5.23;2.37;;;;;;;8.44;88.09;96995.91;4938674;28;20470;-70
2020/12/21 11:47:08;;;;;;;3.77;1.63;;;;;;;8.33;88.50;96998.19;4939297;28;20962;-70